createdAt,value
2018-12-31T00:00:28.731Z,16.63
2018-12-31T00:02:58.113Z,19.57
2018-12-31T00:05:27.473Z,20.37
2018-12-31T00:07:56.762Z,15.90
2018-12-31T00:10:26.049Z,15.93
2018-12-31T00:12:55.249Z,21.37
2018-12-31T00:15:24.690Z,15.80
2018-12-31T00:17:53.986Z,15.50
2018-12-31T00:20:23.319Z,15.73
2018-12-31T00:22:52.667Z,20.77
2018-12-31T00:25:23.764Z,23.83
2018-12-31T00:27:53.010Z,21.30
2018-12-31T00:30:22.405Z,19.93
2018-12-31T00:32:51.737Z,21.83
2018-12-31T00:35:21.039Z,26.97
2018-12-31T00:37:50.487Z,20.63
2018-12-31T00:40:19.761Z,21.27
2018-12-31T00:42:49.073Z,21.00
2018-12-31T00:45:18.353Z,16.17
2018-12-31T00:47:47.648Z,16.90
2018-12-31T00:50:17.097Z,25.57
2018-12-31T00:52:46.407Z,19.67
2018-12-31T00:55:16.747Z,21.90
2018-12-31T00:57:46.164Z,17.77
2018-12-31T01:00:15.484Z,23.00
2018-12-31T01:02:44.853Z,19.97
2018-12-31T01:05:14.226Z,22.33
2018-12-31T01:07:43.501Z,15.93
2018-12-31T01:10:13.064Z,23.83
2018-12-31T01:12:42.322Z,25.53
2018-12-31T01:15:11.665Z,19.23
2018-12-31T01:17:40.961Z,15.73
2018-12-31T01:20:10.273Z,20.67
2018-12-31T01:22:39.580Z,24.57
2018-12-31T01:25:08.858Z,19.17
2018-12-31T01:27:38.139Z,15.33
2018-12-31T01:30:07.970Z,26.03
2018-12-31T01:32:37.292Z,18.57
2018-12-31T01:35:06.812Z,18.40
2018-12-31T01:37:36.118Z,17.47
2018-12-31T01:40:05.760Z,20.53
2018-12-31T01:42:35.071Z,17.87
2018-12-31T01:45:04.584Z,24.27
2018-12-31T01:47:33.908Z,20.07
2018-12-31T01:50:03.155Z,14.33
2018-12-31T01:52:32.529Z,18.53
2018-12-31T01:55:01.804Z,17.30
2018-12-31T01:57:31.154Z,18.40
2018-12-31T02:00:00.606Z,17.77
2018-12-31T02:02:29.906Z,18.50
2018-12-31T02:04:59.101Z,21.20
2018-12-31T02:07:28.435Z,19.40
2018-12-31T02:09:57.796Z,23.20
2018-12-31T02:12:27.063Z,13.47
2018-12-31T02:14:56.343Z,19.47
2018-12-31T02:17:25.673Z,20.87
2018-12-31T02:19:55.128Z,16.10
2018-12-31T02:22:24.364Z,18.50
2018-12-31T02:24:53.672Z,17.30
2018-12-31T02:27:22.917Z,17.33
2018-12-31T02:29:52.190Z,22.47
2018-12-31T02:32:21.490Z,15.37
2018-12-31T02:34:50.755Z,21.23
2018-12-31T02:37:20.129Z,17.43
2018-12-31T02:39:49.429Z,24.37
2018-12-31T02:42:18.681Z,18.67
2018-12-31T02:44:49.027Z,18.17
2018-12-31T02:47:18.406Z,21.20
2018-12-31T02:49:47.914Z,18.53
2018-12-31T02:52:17.179Z,18.30
2018-12-31T02:54:46.436Z,23.40
2018-12-31T02:57:15.706Z,25.23
2018-12-31T02:59:44.947Z,23.93
2018-12-31T03:02:14.319Z,21.53
2018-12-31T03:04:43.572Z,28.63
2018-12-31T03:07:12.876Z,23.93
2018-12-31T03:09:42.128Z,28.47
2018-12-31T03:12:11.446Z,24.30
2018-12-31T03:14:40.706Z,27.80
2018-12-31T03:17:09.948Z,24.23
2018-12-31T03:19:39.158Z,21.77
2018-12-31T03:22:08.425Z,31.37
2018-12-31T03:24:37.646Z,18.33
2018-12-31T03:27:06.877Z,27.33
2018-12-31T03:29:36.065Z,30.93
2018-12-31T03:32:05.327Z,27.20
2018-12-31T03:34:34.646Z,26.43
2018-12-31T03:37:03.995Z,23.33
2018-12-31T03:39:33.323Z,30.20
2018-12-31T03:42:02.575Z,36.60
2018-12-31T03:44:31.859Z,36.43
2018-12-31T03:47:01.213Z,29.80
2018-12-31T03:49:30.511Z,38.50
2018-12-31T03:51:59.749Z,34.17
2018-12-31T03:54:28.985Z,30.60
2018-12-31T03:56:58.237Z,38.60
2018-12-31T03:59:27.581Z,32.83
2018-12-31T04:01:56.929Z,31.50
2018-12-31T04:04:26.178Z,33.20
2018-12-31T04:06:55.456Z,35.83
2018-12-31T04:09:24.762Z,35.10
2018-12-31T04:11:53.978Z,43.33
2018-12-31T04:14:23.302Z,44.17
2018-12-31T04:16:52.651Z,36.43
2018-12-31T04:19:21.938Z,35.10
2018-12-31T04:21:51.212Z,38.27
2018-12-31T04:24:20.482Z,34.30
2018-12-31T04:26:49.782Z,42.23
2018-12-31T04:29:19.018Z,39.87
2018-12-31T04:31:48.262Z,43.90
2018-12-31T04:34:17.547Z,38.00
2018-12-31T04:36:46.822Z,45.47
2018-12-31T04:39:16.142Z,44.30
2018-12-31T04:41:45.410Z,33.67
2018-12-31T04:44:14.686Z,37.73
2018-12-31T04:46:44.006Z,35.83
2018-12-31T04:49:13.273Z,34.00
2018-12-31T04:51:42.566Z,41.70
2018-12-31T04:54:11.938Z,36.70
2018-12-31T04:56:41.211Z,41.27
2018-12-31T04:59:10.435Z,37.97
2018-12-31T05:01:39.753Z,39.77
2018-12-31T05:04:08.989Z,40.77
2018-12-31T05:06:38.315Z,38.97
2018-12-31T05:09:07.779Z,35.87
2018-12-31T05:11:37.115Z,42.33
2018-12-31T05:14:06.382Z,40.50
2018-12-31T05:16:35.665Z,36.17
2018-12-31T05:19:04.998Z,30.97
2018-12-31T05:21:34.366Z,38.67
2018-12-31T05:24:03.642Z,35.27
2018-12-31T05:26:32.911Z,35.23
2018-12-31T05:29:02.273Z,32.60
2018-12-31T05:31:31.547Z,43.60
2018-12-31T05:34:00.893Z,38.50
2018-12-31T05:36:30.149Z,41.07
2018-12-31T05:38:59.446Z,38.57
2018-12-31T05:41:28.727Z,44.60
2018-12-31T05:43:57.995Z,35.30
2018-12-31T05:46:27.335Z,39.43
2018-12-31T05:48:56.612Z,43.83
2018-12-31T05:51:25.965Z,46.57
2018-12-31T05:53:55.234Z,39.17
2018-12-31T05:56:24.524Z,38.60
2018-12-31T05:58:53.840Z,49.60
2018-12-31T06:01:23.034Z,45.27
2018-12-31T06:03:52.307Z,48.67
2018-12-31T06:06:21.702Z,50.63
2018-12-31T06:08:50.974Z,43.67
2018-12-31T06:11:20.153Z,53.47
2018-12-31T06:13:49.598Z,46.03
2018-12-31T06:16:18.838Z,50.73
2018-12-31T06:18:48.192Z,50.80
2018-12-31T06:21:17.542Z,52.23
2018-12-31T06:23:46.727Z,49.87
2018-12-31T06:26:15.997Z,50.20
2018-12-31T06:28:45.329Z,45.80
2018-12-31T06:31:14.621Z,45.60
2018-12-31T06:33:43.874Z,42.40
2018-12-31T06:36:13.126Z,41.93
2018-12-31T06:38:42.404Z,46.13
2018-12-31T06:41:11.650Z,48.33
2018-12-31T06:43:40.932Z,49.73
2018-12-31T06:46:10.479Z,54.63
2018-12-31T06:48:39.843Z,47.60
2018-12-31T06:51:09.177Z,47.47
2018-12-31T06:53:38.483Z,53.37
2018-12-31T06:56:07.767Z,47.73
2018-12-31T06:58:37.065Z,51.87
2018-12-31T07:01:06.346Z,58.83
2018-12-31T07:03:35.544Z,53.23
2018-12-31T07:06:04.834Z,59.57
2018-12-31T07:08:34.215Z,59.27
2018-12-31T07:11:03.482Z,61.93
2018-12-31T07:13:32.850Z,55.57
2018-12-31T07:16:02.158Z,52.93
2018-12-31T07:18:31.550Z,47.50
2018-12-31T07:21:00.849Z,60.23
2018-12-31T07:23:30.079Z,52.27
2018-12-31T07:25:59.425Z,61.47
2018-12-31T07:28:28.790Z,46.80
2018-12-31T07:30:58.016Z,60.50
2018-12-31T07:33:27.468Z,49.03
2018-12-31T07:35:56.731Z,55.53
2018-12-31T07:38:26.024Z,54.43
2018-12-31T07:40:55.380Z,52.50
2018-12-31T07:43:24.638Z,57.90
2018-12-31T07:45:53.961Z,52.03
2018-12-31T07:48:23.202Z,53.73
2018-12-31T07:50:52.522Z,53.10
2018-12-31T07:53:21.833Z,52.00
2018-12-31T07:55:51.237Z,49.00
2018-12-31T07:58:20.674Z,52.07
2018-12-31T08:00:50.037Z,52.30
2018-12-31T08:03:19.353Z,51.53
2018-12-31T08:05:48.630Z,53.87
2018-12-31T08:08:17.901Z,54.27
2018-12-31T08:10:47.154Z,58.03
2018-12-31T08:13:16.402Z,52.33
2018-12-31T08:15:45.720Z,46.90
2018-12-31T08:18:15.032Z,52.87
2018-12-31T08:20:44.318Z,51.30
2018-12-31T08:23:13.662Z,51.53
2018-12-31T08:25:42.947Z,49.63
2018-12-31T08:28:12.292Z,50.40
2018-12-31T08:30:41.694Z,56.93
2018-12-31T08:33:11.031Z,49.70
2018-12-31T08:35:40.362Z,49.77
2018-12-31T08:38:09.624Z,44.80
2018-12-31T08:40:38.873Z,47.00
2018-12-31T08:43:08.203Z,49.83
2018-12-31T08:45:37.502Z,47.50
2018-12-31T08:48:06.828Z,46.90
2018-12-31T08:50:36.149Z,46.20
2018-12-31T08:53:05.414Z,44.97
2018-12-31T08:55:34.770Z,44.67
2018-12-31T08:58:04.243Z,44.63
2018-12-31T09:00:33.658Z,54.10
2018-12-31T09:03:03.072Z,51.73
2018-12-31T09:05:32.382Z,43.13
2018-12-31T09:08:01.728Z,51.33
2018-12-31T09:10:31.154Z,48.33
2018-12-31T09:13:00.412Z,43.33
2018-12-31T09:15:29.783Z,43.13
2018-12-31T09:17:59.109Z,45.33
2018-12-31T09:20:28.658Z,43.10
2018-12-31T09:22:58.000Z,47.13
2018-12-31T09:25:27.340Z,48.57
2018-12-31T09:27:56.638Z,43.80
2018-12-31T09:30:26.052Z,46.93
2018-12-31T09:32:55.473Z,44.30
2018-12-31T09:35:24.882Z,39.37
2018-12-31T09:37:54.173Z,42.07
2018-12-31T09:40:23.710Z,37.87
2018-12-31T09:42:52.998Z,43.33
2018-12-31T09:45:22.371Z,37.27
2018-12-31T09:47:51.674Z,37.30
2018-12-31T09:50:21.065Z,39.63
2018-12-31T09:52:50.546Z,46.40
2018-12-31T09:55:19.874Z,41.73
2018-12-31T09:57:49.220Z,45.50
2018-12-31T10:00:18.652Z,40.80
2018-12-31T10:02:48.033Z,34.63
2018-12-31T10:05:17.355Z,30.97
2018-12-31T10:07:46.605Z,34.43
2018-12-31T10:10:15.977Z,32.97
2018-12-31T10:12:45.367Z,26.73
2018-12-31T10:15:15.061Z,27.40
2018-12-31T10:17:44.229Z,26.53
2018-12-31T10:20:13.498Z,23.93
2018-12-31T10:22:42.721Z,23.50
2018-12-31T10:25:12.146Z,23.03
2018-12-31T10:27:41.435Z,24.40
2018-12-31T10:30:10.745Z,27.33
2018-12-31T10:32:40.090Z,26.97
2018-12-31T10:35:09.366Z,31.03
2018-12-31T10:37:38.746Z,29.87
2018-12-31T10:40:09.097Z,31.43
2018-12-31T10:42:38.452Z,28.90
2018-12-31T10:45:07.758Z,32.17
2018-12-31T10:47:37.100Z,30.50
2018-12-31T10:50:07.862Z,28.87
2018-12-31T10:52:37.195Z,26.47
2018-12-31T10:55:06.955Z,33.20
2018-12-31T10:57:36.405Z,32.93
2018-12-31T11:00:06.606Z,32.50
2018-12-31T11:02:36.019Z,34.37
2018-12-31T11:05:05.540Z,28.70
2018-12-31T11:07:34.849Z,27.50
2018-12-31T11:10:04.861Z,29.73
2018-12-31T11:12:34.168Z,31.70
2018-12-31T11:15:03.678Z,25.00
2018-12-31T11:17:33.092Z,23.23
2018-12-31T11:20:02.521Z,20.40
2018-12-31T11:22:31.964Z,22.17
2018-12-31T11:25:01.291Z,17.90
2018-12-31T11:27:30.658Z,18.10
2018-12-31T11:29:59.942Z,20.37
2018-12-31T11:32:29.228Z,22.10
2018-12-31T11:34:58.606Z,20.47
2018-12-31T11:37:34.410Z,26.17
2018-12-31T11:39:58.850Z,26.83
2018-12-31T11:42:28.292Z,28.87
2018-12-31T11:44:57.591Z,29.33
2018-12-31T11:47:27.796Z,33.83
2018-12-31T11:49:57.060Z,28.87
2018-12-31T11:52:26.359Z,30.37
2018-12-31T11:54:55.642Z,29.27
2018-12-31T11:57:24.940Z,28.83
2018-12-31T11:59:55.677Z,27.10
2018-12-31T12:02:25.010Z,31.00
2018-12-31T12:04:54.596Z,28.70
2018-12-31T12:07:23.962Z,33.60
2018-12-31T12:09:53.358Z,33.40
2018-12-31T12:12:22.810Z,29.93
2018-12-31T12:14:52.194Z,28.70
2018-12-31T12:17:21.637Z,27.80
2018-12-31T12:19:50.971Z,27.00
2018-12-31T12:22:20.293Z,28.87
2018-12-31T12:24:51.216Z,28.00
2018-12-31T12:27:20.651Z,24.03
2018-12-31T12:29:49.939Z,23.00
2018-12-31T12:32:19.294Z,22.63
2018-12-31T12:34:48.594Z,21.50
2018-12-31T12:37:18.057Z,22.17
2018-12-31T12:39:47.332Z,19.27
2018-12-31T12:42:16.814Z,17.43
2018-12-31T12:44:46.079Z,19.70
2018-12-31T12:47:16.827Z,19.93
2018-12-31T12:49:46.105Z,16.57
2018-12-31T12:52:15.474Z,17.97
2018-12-31T12:54:46.892Z,18.97
2018-12-31T12:57:16.311Z,13.07
2018-12-31T12:59:46.041Z,15.90
2018-12-31T13:02:15.348Z,21.43
2018-12-31T13:04:44.633Z,22.17
2018-12-31T13:07:13.912Z,13.17
2018-12-31T13:09:43.191Z,11.67
2018-12-31T13:12:13.579Z,11.87
2018-12-31T13:14:42.872Z,10.33
2018-12-31T13:17:12.213Z,12.37
2018-12-31T13:19:41.531Z,14.87
2018-12-31T13:22:10.905Z,12.87
2018-12-31T13:24:40.174Z,14.83
2018-12-31T13:27:09.470Z,21.00
2018-12-31T13:29:38.832Z,13.23
2018-12-31T13:32:08.192Z,11.20
2018-12-31T13:34:37.530Z,9.00
2018-12-31T13:37:06.856Z,10.40
2018-12-31T13:39:36.062Z,10.30
2018-12-31T13:42:05.351Z,8.90
2018-12-31T13:44:34.660Z,10.60
2018-12-31T13:47:03.917Z,15.80
2018-12-31T13:49:33.317Z,13.77
2018-12-31T13:52:02.685Z,15.73
2018-12-31T13:54:31.935Z,13.03
2018-12-31T13:57:01.202Z,13.10
2018-12-31T13:59:30.740Z,8.70
2018-12-31T14:02:00.035Z,18.83
2018-12-31T14:04:29.280Z,10.27
2018-12-31T14:06:58.597Z,9.10
2018-12-31T14:09:27.965Z,6.67
2018-12-31T14:11:57.514Z,7.87
2018-12-31T14:14:26.858Z,7.73
2018-12-31T14:16:56.202Z,6.83
2018-12-31T14:19:25.475Z,9.80
2018-12-31T14:21:54.750Z,10.70
2018-12-31T14:24:24.024Z,9.43
2018-12-31T14:27:00.334Z,12.07
2018-12-31T14:29:24.224Z,21.57
2018-12-31T14:31:53.526Z,10.33
2018-12-31T14:34:22.788Z,8.07
2018-12-31T14:36:52.159Z,8.73
2018-12-31T14:39:21.439Z,9.57
2018-12-31T14:41:50.756Z,12.10
2018-12-31T14:44:20.035Z,16.60
2018-12-31T14:46:49.370Z,12.57
2018-12-31T14:49:18.606Z,12.03
2018-12-31T14:51:48.010Z,7.67
2018-12-31T14:54:17.281Z,8.93
2018-12-31T14:56:46.741Z,7.37
2018-12-31T14:59:16.001Z,10.20
2018-12-31T15:01:45.281Z,6.90
2018-12-31T15:04:14.642Z,6.77
2018-12-31T15:06:43.957Z,6.63
2018-12-31T15:09:13.269Z,8.43
2018-12-31T15:11:42.994Z,8.20
2018-12-31T15:14:12.299Z,8.63
2018-12-31T15:16:41.555Z,7.93
2018-12-31T15:19:10.847Z,9.77
2018-12-31T15:21:40.281Z,11.87
2018-12-31T15:24:09.945Z,15.77
2018-12-31T15:26:39.234Z,20.60
2018-12-31T15:29:08.496Z,20.63
2018-12-31T15:31:37.865Z,13.03
2018-12-31T15:34:07.160Z,13.60
2018-12-31T15:36:36.690Z,21.30
2018-12-31T15:39:07.687Z,12.33
2018-12-31T15:41:36.934Z,18.07
2018-12-31T15:44:06.329Z,14.77
2018-12-31T15:46:35.578Z,16.83
2018-12-31T15:49:04.845Z,23.20
2018-12-31T15:51:34.153Z,21.97
2018-12-31T15:54:03.577Z,22.73
2018-12-31T15:56:32.926Z,21.23
2018-12-31T15:59:02.281Z,22.63
2018-12-31T16:01:31.590Z,22.50
2018-12-31T16:04:00.882Z,30.40
2018-12-31T16:06:30.145Z,31.33
2018-12-31T16:08:59.442Z,31.33
2018-12-31T16:11:28.715Z,30.07
2018-12-31T16:13:58.007Z,30.77
2018-12-31T16:16:27.336Z,35.03
2018-12-31T16:18:56.731Z,34.50
2018-12-31T16:21:26.058Z,38.33
2018-12-31T16:23:55.321Z,43.23
2018-12-31T16:26:24.649Z,40.77
2018-12-31T16:28:53.958Z,39.30
2018-12-31T16:31:23.293Z,44.10
2018-12-31T16:33:52.646Z,36.90
2018-12-31T16:36:21.987Z,45.63
2018-12-31T16:38:51.340Z,38.87
2018-12-31T16:41:20.725Z,40.13
2018-12-31T16:43:50.188Z,43.00
2018-12-31T16:46:19.492Z,40.97
2018-12-31T16:48:48.865Z,43.63
2018-12-31T16:51:18.169Z,38.03
2018-12-31T16:53:47.474Z,43.30
2018-12-31T16:56:16.751Z,32.47
2018-12-31T16:58:46.081Z,45.73
2018-12-31T17:01:15.501Z,46.23
2018-12-31T17:03:44.724Z,41.17
2018-12-31T17:06:14.026Z,49.07
2018-12-31T17:08:43.291Z,45.67
2018-12-31T17:11:12.624Z,44.77
2018-12-31T17:13:41.893Z,42.33
2018-12-31T17:16:11.146Z,42.13
2018-12-31T17:18:40.445Z,40.20
2018-12-31T17:21:09.713Z,39.77
2018-12-31T17:23:39.081Z,31.27
2018-12-31T17:26:08.445Z,31.70
2018-12-31T17:28:37.758Z,37.60
2018-12-31T17:31:07.175Z,40.40
2018-12-31T17:33:36.711Z,38.73
2018-12-31T17:36:06.088Z,36.67
2018-12-31T17:38:35.330Z,32.67
2018-12-31T17:41:04.601Z,31.73
2018-12-31T17:43:33.874Z,30.20
2018-12-31T17:46:03.159Z,32.97
2018-12-31T17:48:32.472Z,29.37
2018-12-31T17:51:01.761Z,27.30
2018-12-31T17:53:31.088Z,691.60
2018-12-31T17:56:00.470Z,89.50
2018-12-31T17:58:29.741Z,579.53
2018-12-31T18:00:59.137Z,508.93
2018-12-31T18:03:28.451Z,47.97
2018-12-31T18:05:57.739Z,103.43
2018-12-31T18:08:27.015Z,55.00
2018-12-31T18:10:56.265Z,245.00
2018-12-31T18:13:25.554Z,391.27
2018-12-31T18:15:54.931Z,190.40
2018-12-31T18:18:24.273Z,184.77
2018-12-31T18:20:53.574Z,255.83
2018-12-31T18:23:22.838Z,119.07
2018-12-31T18:25:52.145Z,52.83
2018-12-31T18:28:21.401Z,231.13
2018-12-31T18:30:50.774Z,200.50
2018-12-31T18:33:20.122Z,213.50
2018-12-31T18:35:49.378Z,473.37
2018-12-31T18:38:18.824Z,239.03
2018-12-31T18:40:48.092Z,707.70
2018-12-31T18:43:17.494Z,342.60
2018-12-31T18:45:46.824Z,411.50
2018-12-31T18:48:16.174Z,612.80
2018-12-31T18:50:45.473Z,119.43
2018-12-31T18:53:14.754Z,203.90
2018-12-31T18:55:44.141Z,234.63
2018-12-31T18:58:13.442Z,273.40
2018-12-31T19:00:42.774Z,229.93
2018-12-31T19:03:12.109Z,215.83
2018-12-31T19:05:41.493Z,567.67
2018-12-31T19:08:10.806Z,239.77
2018-12-31T19:10:40.152Z,130.63
2018-12-31T19:13:09.530Z,40.03
2018-12-31T19:15:38.897Z,40.37
2018-12-31T19:18:08.261Z,34.03
2018-12-31T19:20:37.551Z,36.67
2018-12-31T19:23:06.885Z,27.47
2018-12-31T19:25:36.269Z,30.27
2018-12-31T19:28:05.572Z,38.87
2018-12-31T19:30:34.827Z,32.70
2018-12-31T19:33:04.114Z,28.70
2018-12-31T19:35:33.390Z,48.17
2018-12-31T19:38:02.751Z,56.87
2018-12-31T19:40:32.092Z,42.87
2018-12-31T19:43:01.555Z,30.47
2018-12-31T19:45:30.869Z,39.27
2018-12-31T19:48:00.123Z,39.77
2018-12-31T19:50:29.513Z,56.07
2018-12-31T19:52:59.010Z,45.97
2018-12-31T19:55:28.337Z,46.83
2018-12-31T19:57:57.704Z,40.57
2018-12-31T20:00:26.983Z,37.10
2018-12-31T20:02:56.248Z,36.33
2018-12-31T20:05:25.582Z,35.63
2018-12-31T20:07:54.850Z,41.60
2018-12-31T20:10:24.177Z,39.27
2018-12-31T20:12:53.511Z,34.50
2018-12-31T20:15:22.751Z,34.93
2018-12-31T20:17:52.129Z,33.00
2018-12-31T20:20:21.396Z,31.03
2018-12-31T20:22:50.719Z,32.60
2018-12-31T20:25:20.004Z,38.90
2018-12-31T20:27:49.271Z,26.50
2018-12-31T20:30:18.612Z,30.40
2018-12-31T20:32:47.929Z,40.63
2018-12-31T20:35:17.635Z,30.50
2018-12-31T20:37:46.881Z,38.57
2018-12-31T20:40:16.241Z,50.27
2018-12-31T20:42:45.501Z,41.33
2018-12-31T20:45:15.004Z,38.83
2018-12-31T20:47:44.358Z,48.20
2018-12-31T20:50:13.653Z,49.53
2018-12-31T20:52:43.003Z,39.43
2018-12-31T20:55:12.278Z,39.87
2018-12-31T20:57:41.623Z,42.43
2018-12-31T21:00:10.906Z,31.77
2018-12-31T21:02:40.192Z,26.43
2018-12-31T21:05:11.411Z,23.40
2018-12-31T21:07:40.394Z,26.73
2018-12-31T21:10:10.907Z,25.40
2018-12-31T21:12:40.397Z,25.93
2018-12-31T21:15:09.838Z,27.63
2018-12-31T21:17:39.154Z,30.50
2018-12-31T21:20:08.995Z,28.97
2018-12-31T21:22:38.266Z,55.83
2018-12-31T21:25:07.556Z,37.83
2018-12-31T21:27:36.852Z,30.60
2018-12-31T21:30:08.530Z,25.30
2018-12-31T21:32:37.877Z,26.53
2018-12-31T21:35:07.782Z,33.27
2018-12-31T21:37:37.068Z,28.37
2018-12-31T21:40:08.441Z,31.27
2018-12-31T21:42:37.685Z,30.67
2018-12-31T21:45:06.956Z,25.33
2018-12-31T21:47:37.945Z,23.07
2018-12-31T21:50:07.511Z,24.77
2018-12-31T21:52:36.895Z,21.73
2018-12-31T21:55:06.518Z,23.73
2018-12-31T21:57:35.782Z,25.00
2018-12-31T22:00:06.350Z,24.27
2018-12-31T22:02:35.740Z,28.97
2018-12-31T22:05:05.108Z,22.87
2018-12-31T22:07:34.404Z,20.27
2018-12-31T22:10:03.762Z,20.50
2018-12-31T22:12:33.049Z,19.17
2018-12-31T22:15:02.318Z,14.50
2018-12-31T22:17:31.661Z,20.17
2018-12-31T22:20:00.987Z,14.57
2018-12-31T22:22:30.249Z,13.20
2018-12-31T22:25:01.187Z,15.93
2018-12-31T22:27:31.983Z,15.77
2018-12-31T22:30:01.256Z,15.10
2018-12-31T22:32:30.527Z,16.40
2018-12-31T22:34:59.766Z,13.23
2018-12-31T22:37:29.072Z,13.93
2018-12-31T22:39:58.322Z,14.67
2018-12-31T22:42:27.664Z,19.53
2018-12-31T22:44:57.029Z,15.20
2018-12-31T22:47:26.270Z,24.73
2018-12-31T22:49:55.567Z,24.67
2018-12-31T22:52:24.890Z,31.67
2018-12-31T22:54:54.255Z,40.43
2018-12-31T22:57:23.722Z,44.80
2018-12-31T22:59:52.989Z,71.70
2018-12-31T23:02:22.335Z,69.77
2018-12-31T23:04:52.094Z,125.10
2018-12-31T23:07:21.490Z,250.07
2018-12-31T23:09:50.867Z,381.80
2018-12-31T23:12:20.287Z,327.07
2018-12-31T23:14:49.583Z,444.23
2018-12-31T23:17:19.630Z,393.73
2018-12-31T23:19:48.929Z,262.63
2018-12-31T23:22:18.340Z,297.17
2018-12-31T23:24:47.680Z,334.93
2018-12-31T23:27:17.047Z,270.03
2018-12-31T23:29:46.633Z,263.73
2018-12-31T23:32:15.950Z,205.67
2018-12-31T23:34:45.199Z,124.03
2018-12-31T23:37:14.513Z,150.17
2018-12-31T23:39:43.805Z,106.80
2018-12-31T23:42:13.430Z,77.53
2018-12-31T23:44:42.772Z,66.83
2018-12-31T23:47:12.086Z,53.00
2018-12-31T23:49:41.419Z,44.93
2018-12-31T23:52:10.738Z,51.63
2018-12-31T23:54:40.414Z,40.47
2018-12-31T23:57:10.111Z,26.70
2018-12-31T23:59:39.461Z,26.00
